Time;durP1;ratioP1;P1;durP2;ratioP2;P2;SDS_P1;SDS_P2;PMS_P1;PMS_P2;Temp;Humidity;BMP_temperature;BMP_pressure;BME280_temperature;BME280_humidity;BME280_pressure;Samples;Min_cycle;Max_cycle;Signal;HPM_P1;HPM_P2
2023/04/03 00:00:04;;;;;;;;;;;0.70;99.90;;;;;;4942259;29;19926;-79
2023/04/03 00:02:33;;;;;;;;;;;0.60;99.90;;;;;;4946683;28;20254;-78
2023/04/03 00:05:00;;;;;;;;;;;0.60;99.90;;;;;;4941585;29;20346;-77
2023/04/03 00:10:03;;;;;;;;;;;0.50;99.90;;;;;;5300476;23;20309;-79
2023/04/03 00:12:30;;;;;;;;;;;0.50;99.90;;;;;;4953659;28;19929;-78
2023/04/03 00:14:56;;;;;;;;;;;0.50;99.90;;;;;;4960238;29;20322;-79
2023/04/03 00:17:25;;;;;;;;;;;0.50;99.90;;;;;;4965954;28;20417;-79
2023/04/03 00:19:52;;;;;;;;;;;0.50;99.90;;;;;;4944376;29;20446;-80
2023/04/03 00:22:19;;;;;;;;;;;0.50;99.90;;;;;;4941413;29;20350;-80
2023/04/03 00:24:45;;;;;;;;;;;0.50;99.90;;;;;;4944026;29;20368;-81
2023/04/03 00:27:12;;;;;;;;;;;0.50;99.90;;;;;;4945883;28;20278;-80
2023/04/03 00:29:40;;;;;;;;;;;0.50;99.90;;;;;;4944137;29;19998;-80
2023/04/03 00:32:07;;;;;;;;;;;0.40;99.90;;;;;;4952358;29;19926;-81
2023/04/03 00:34:35;;;;;;;;;;;0.40;99.90;;;;;;4944859;29;19922;-81
2023/04/03 00:37:02;;;;;;;;;;;0.40;99.90;;;;;;4949519;29;19950;-81
2023/04/03 00:39:30;;;;;;;;;;;0.40;99.90;;;;;;4948060;29;19942;-82
2023/04/03 00:41:57;;;;;;;;;;;0.40;99.90;;;;;;4961390;29;19926;-81
2023/04/03 00:44:44;;;;;;;;;;;0.40;99.90;;;;;;4962107;29;19934;-79
2023/04/03 00:52:30;;;;;;;;;;;0.40;99.90;;;;;;4982673;28;19922;-79
2023/04/03 00:54:59;;;;;;;;;;;0.40;99.90;;;;;;4963473;28;19917;-79
2023/04/03 00:57:26;;;;;;;;;;;0.30;99.90;;;;;;4962580;28;19922;-78
2023/04/03 00:59:56;;;;;;;;;;;0.30;99.90;;;;;;4964721;28;19945;-81
2023/04/03 01:02:23;;;;;;;;;;;0.30;99.90;;;;;;4963547;28;20353;-82
2023/04/03 01:04:51;;;;;;;;;;;0.30;99.90;;;;;;4963430;28;19926;-80
2023/04/03 01:07:21;;;;;;;;;;;0.30;99.90;;;;;;4963372;28;20410;-80
2023/04/03 01:09:51;;;;;;;;;;;0.30;99.90;;;;;;4972489;28;19922;-81
2023/04/03 01:12:22;;;;;;;;;;;0.30;99.90;;;;;;4963473;28;19945;-81
2023/04/03 01:14:50;;;;;;;;;;;0.30;99.90;;;;;;4962251;28;19977;-81
2023/04/03 01:17:30;;;;;;;;;;;0.30;99.90;;;;;;4959100;28;20420;-79
2023/04/03 01:20:15;;;;;;;;;;;0.30;99.90;;;;;;4956000;28;20382;-80
2023/04/03 01:26:12;;;;;;;;;;;0.20;99.90;;;;;;4979527;28;19973;-80
2023/04/03 01:28:40;;;;;;;;;;;0.10;99.90;;;;;;4974981;28;20630;-80
2023/04/03 01:31:11;;;;;;;;;;;0.10;99.90;;;;;;4966262;28;19925;-78
2023/04/03 01:33:42;;;;;;;;;;;0.10;99.90;;;;;;4958159;28;19966;-78
2023/04/03 01:36:13;;;;;;;;;;;0.10;99.90;;;;;;4989531;28;19930;-79
2023/04/03 01:38:41;;;;;;;;;;;0.10;99.90;;;;;;4965958;28;20016;-79
2023/04/03 01:41:08;;;;;;;;;;;0.10;99.90;;;;;;4969191;28;19932;-79
2023/04/03 01:43:35;;;;;;;;;;;0.10;99.90;;;;;;4961917;28;19925;-79
2023/04/03 01:46:02;;;;;;;;;;;0.10;99.90;;;;;;4961418;28;20474;-79
2023/04/03 01:48:29;;;;;;;;;;;0.00;99.90;;;;;;4961587;28;19940;-79
2023/04/03 01:50:58;;;;;;;;;;;0.00;99.90;;;;;;4962675;28;19922;-80
2023/04/03 01:53:25;;;;;;;;;;;0.00;99.90;;;;;;4961242;28;20020;-78
2023/04/03 01:55:52;;;;;;;;;;;0.00;99.90;;;;;;4960927;28;19926;-78
2023/04/03 01:58:19;;;;;;;;;;;-0.10;99.90;;;;;;4959882;28;20005;-79
2023/04/03 02:00:48;;;;;;;;;;;-0.10;99.90;;;;;;4960373;28;20012;-78
2023/04/03 02:03:15;;;;;;;;;;;-0.10;99.90;;;;;;4961253;28;20013;-79
2023/04/03 02:05:42;;;;;;;;;;;-0.10;99.90;;;;;;4959061;28;19952;-78
2023/04/03 02:08:11;;;;;;;;;;;-0.10;99.90;;;;;;4971567;23;19961;-82
2023/04/03 02:10:37;;;;;;;;;;;0.00;99.90;;;;;;4962001;28;19922;-82
2023/04/03 02:13:04;;;;;;;;;;;0.00;99.90;;;;;;4954719;29;19927;-82
2023/04/03 02:15:31;;;;;;;;;;;0.00;99.90;;;;;;4953381;29;20282;-82
2023/04/03 02:17:58;;;;;;;;;;;0.00;99.90;;;;;;4952866;28;19926;-82
2023/04/03 02:20:25;;;;;;;;;;;0.00;99.90;;;;;;4972054;28;19949;-82
2023/04/03 02:22:52;;;;;;;;;;;0.00;99.90;;;;;;4953496;29;19956;-82
2023/04/03 02:25:20;;;;;;;;;;;0.00;99.90;;;;;;4954559;28;19950;-82
2023/04/03 02:27:46;;;;;;;;;;;0.00;99.90;;;;;;4943578;28;19927;-82
2023/04/03 02:30:14;;;;;;;;;;;0.00;99.90;;;;;;4942668;29;19922;-82
2023/04/03 02:32:42;;;;;;;;;;;0.00;99.90;;;;;;4946173;29;19957;-82
2023/04/03 02:35:09;;;;;;;;;;;0.00;99.90;;;;;;4950620;29;19937;-82
2023/04/03 02:37:36;;;;;;;;;;;0.00;99.90;;;;;;4954282;29;19932;-82
2023/04/03 02:40:03;;;;;;;;;;;-0.10;99.90;;;;;;4954646;28;19933;-82
2023/04/03 02:42:31;;;;;;;;;;;-0.10;99.90;;;;;;4947402;29;19947;-82
2023/04/03 02:45:00;;;;;;;;;;;-0.10;99.90;;;;;;4940202;29;20582;-82
2023/04/03 02:47:26;;;;;;;;;;;-0.10;99.90;;;;;;4939376;29;19933;-82
2023/04/03 02:49:54;;;;;;;;;;;-0.10;99.90;;;;;;4949012;29;20029;-82
2023/04/03 02:52:21;;;;;;;;;;;0.00;99.90;;;;;;4966594;28;19976;-81
2023/04/03 02:54:49;;;;;;;;;;;0.00;99.90;;;;;;4950932;29;20532;-82
2023/04/03 02:57:16;;;;;;;;;;;0.00;99.90;;;;;;4951798;28;19926;-82
2023/04/03 02:59:44;;;;;;;;;;;0.00;99.90;;;;;;4951751;28;19934;-82
2023/04/03 03:02:12;;;;;;;;;;;0.00;99.90;;;;;;4962300;29;20172;-82
2023/04/03 03:04:39;;;;;;;;;;;0.00;99.90;;;;;;4952202;28;20404;-83
2023/04/03 03:07:05;;;;;;;;;;;0.00;99.90;;;;;;4952013;29;19926;-83
2023/04/03 03:09:32;;;;;;;;;;;0.00;99.90;;;;;;4951920;29;19929;-82
2023/04/03 03:11:59;;;;;;;;;;;0.00;99.90;;;;;;4945930;29;19997;-82
2023/04/03 03:14:26;;;;;;;;;;;0.00;99.90;;;;;;4944568;28;19973;-82
2023/04/03 03:16:54;;;;;;;;;;;0.00;99.90;;;;;;4976078;28;19926;-83
2023/04/03 03:19:21;;;;;;;;;;;0.00;99.90;;;;;;4950724;28;19926;-83
2023/04/03 03:21:48;;;;;;;;;;;0.00;99.90;;;;;;4958988;28;19926;-83
2023/04/03 03:24:15;;;;;;;;;;;0.00;99.90;;;;;;4985390;28;19977;-83
2023/04/03 03:26:42;;;;;;;;;;;0.00;99.90;;;;;;4959645;28;19950;-83
2023/04/03 03:29:09;;;;;;;;;;;0.00;99.90;;;;;;4942978;28;20682;-83
2023/04/03 03:31:36;;;;;;;;;;;0.00;99.90;;;;;;4944614;28;19934;-83
2023/04/03 03:34:04;;;;;;;;;;;-0.10;99.90;;;;;;4953282;28;19926;-82
2023/04/03 03:36:31;;;;;;;;;;;-0.10;99.90;;;;;;4947342;29;19927;-83
2023/04/03 03:38:58;;;;;;;;;;;-0.10;99.90;;;;;;4938762;29;19926;-83
2023/04/03 03:41:25;;;;;;;;;;;-0.10;99.90;;;;;;4956629;28;19923;-83
2023/04/03 03:43:51;;;;;;;;;;;-0.10;99.90;;;;;;4951131;29;20590;-82
2023/04/03 03:46:18;;;;;;;;;;;-0.10;99.90;;;;;;4951016;29;19930;-83
2023/04/03 03:48:45;;;;;;;;;;;-0.10;99.90;;;;;;4951133;28;19934;-83
2023/04/03 03:51:13;;;;;;;;;;;-0.20;99.90;;;;;;4952691;28;19926;-82
2023/04/03 03:53:40;;;;;;;;;;;-0.10;99.90;;;;;;4951086;28;19927;-82
2023/04/03 03:56:12;;;;;;;;;;;0.00;99.90;;;;;;4953740;29;20404;-81
2023/04/03 03:58:40;;;;;;;;;;;0.00;99.90;;;;;;4957388;28;20321;-82
2023/04/03 04:01:08;;;;;;;;;;;0.10;99.90;;;;;;4958322;28;19931;-82
2023/04/03 04:03:40;;;;;;;;;;;0.10;99.90;;;;;;4969637;28;19926;-82
2023/04/03 04:06:09;;;;;;;;;;;0.30;99.90;;;;;;4954085;29;19930;-82
2023/04/03 04:08:37;;;;;;;;;;;0.30;99.90;;;;;;4954277;28;19997;-81
2023/04/03 04:11:07;;;;;;;;;;;0.40;99.90;;;;;;4953808;29;19926;-82
2023/04/03 04:13:34;;;;;;;;;;;0.40;99.90;;;;;;4965244;28;19927;-82
2023/04/03 04:16:01;;;;;;;;;;;0.50;99.90;;;;;;4956257;28;19969;-82
2023/04/03 04:18:28;;;;;;;;;;;0.50;99.90;;;;;;4954700;28;19923;-82
2023/04/03 04:20:55;;;;;;;;;;;0.60;99.90;;;;;;4957711;29;19922;-82
2023/04/03 04:23:23;;;;;;;;;;;0.60;99.90;;;;;;4957183;29;20375;-81
2023/04/03 04:25:52;;;;;;;;;;;0.80;99.90;;;;;;4950814;28;20290;-82
2023/04/03 04:28:20;;;;;;;;;;;0.70;99.90;;;;;;4956949;28;19957;-82
2023/04/03 04:30:50;;;;;;;;;;;0.80;99.90;;;;;;4957398;29;19922;-83
2023/04/03 04:33:18;;;;;;;;;;;0.80;99.90;;;;;;4964495;28;20877;-81
2023/04/03 04:35:45;;;;;;;;;;;0.80;99.90;;;;;;4968979;28;19953;-82
2023/04/03 04:38:12;;;;;;;;;;;0.90;99.90;;;;;;4965579;28;20331;-82
2023/04/03 04:40:39;;;;;;;;;;;0.90;99.90;;;;;;4958284;29;19926;-82
2023/04/03 04:43:08;;;;;;;;;;;0.90;99.90;;;;;;4969152;28;19950;-82
2023/04/03 04:45:36;;;;;;;;;;;0.90;99.90;;;;;;4978334;28;19926;-82
2023/04/03 04:48:03;;;;;;;;;;;0.80;99.90;;;;;;4970979;28;20002;-81
2023/04/03 04:50:30;;;;;;;;;;;0.90;99.90;;;;;;4973963;28;19977;-83
2023/04/03 04:52:57;;;;;;;;;;;0.80;99.90;;;;;;4955264;29;19976;-81
2023/04/03 04:55:24;;;;;;;;;;;0.80;99.90;;;;;;4955999;28;19961;-82
2023/04/03 04:57:51;;;;;;;;;;;0.80;99.90;;;;;;4954567;28;19933;-81
2023/04/03 05:00:20;;;;;;;;;;;0.80;99.90;;;;;;4957697;29;19922;-81
2023/04/03 05:02:47;;;;;;;;;;;1.00;99.90;;;;;;4957527;28;20421;-81
2023/04/03 05:05:14;;;;;;;;;;;0.80;99.90;;;;;;4952333;29;20033;-82
2023/04/03 05:07:41;;;;;;;;;;;0.80;99.90;;;;;;4958002;28;19931;-82
2023/04/03 05:10:09;;;;;;;;;;;0.80;99.90;;;;;;4950261;29;19927;-83
2023/04/03 05:12:36;;;;;;;;;;;0.80;99.90;;;;;;4956457;28;19966;-83
2023/04/03 05:15:05;;;;;;;;;;;1.40;99.90;;;;;;4961063;28;20002;-82
2023/04/03 05:17:34;;;;;;;;;;;0.80;99.90;;;;;;4966814;28;19927;-81
2023/04/03 05:20:01;;;;;;;;;;;0.80;99.90;;;;;;4971618;29;19910;-82
2023/04/03 05:22:29;;;;;;;;;;;0.80;99.90;;;;;;4978017;28;19927;-83
2023/04/03 05:25:00;;;;;;;;;;;0.80;99.90;;;;;;4963584;28;19926;-83
2023/04/03 05:27:28;;;;;;;;;;;0.90;99.90;;;;;;4956131;28;20343;-83
2023/04/03 05:29:57;;;;;;;;;;;0.80;99.90;;;;;;4954668;28;19934;-83
2023/04/03 05:32:26;;;;;;;;;;;0.90;99.90;;;;;;4960909;29;19937;-82
2023/04/03 05:35:04;;;;;;;;;;;0.90;99.90;;;;;;4967017;28;19923;-81
2023/04/03 05:37:31;;;;;;;;;;;1.20;99.90;;;;;;4991966;28;19910;-81
2023/04/03 05:39:58;;;;;;;;;;;1.10;99.90;;;;;;4972492;28;20032;-81
2023/04/03 05:42:25;;;;;;;;;;;1.20;99.90;;;;;;4973806;28;19919;-81
2023/04/03 05:44:51;;;;;;;;;;;1.70;99.90;;;;;;4975838;28;19910;-81
2023/04/03 05:47:18;;;;;;;;;;;2.70;99.90;;;;;;4976643;28;19910;-80
2023/04/03 05:49:45;;;;;;;;;;;3.60;99.90;;;;;;4977384;28;20191;-85
2023/04/03 05:52:21;;;;;;;;;;;4.40;99.90;;;;;;4966548;28;19922;-86
2023/04/03 05:54:48;;;;;;;;;;;4.80;99.90;;;;;;4970652;28;19933;-86
2023/04/03 05:57:20;;;;;;;;;;;5.90;99.90;;;;;;4968996;28;19926;-86
2023/04/03 05:59:47;;;;;;;;;;;6.80;99.90;;;;;;4973569;28;19911;-86
2023/04/03 06:02:16;;;;;;;;;;;7.60;99.90;;;;;;4973809;28;19926;-86
2023/04/03 06:04:43;;;;;;;;;;;8.40;99.90;;;;;;4967972;29;19927;-86
2023/04/03 06:07:12;;;;;;;;;;;9.20;99.90;;;;;;4961753;29;19948;-86
2023/04/03 06:09:40;;;;;;;;;;;9.80;99.90;;;;;;4973062;28;19922;-86
2023/04/03 06:12:07;;;;;;;;;;;10.30;99.90;;;;;;4966685;28;19922;-85
2023/04/03 06:14:34;;;;;;;;;;;10.60;99.90;;;;;;4960898;29;19933;-87
2023/04/03 06:17:02;;;;;;;;;;;10.80;99.90;;;;;;4960303;28;19933;-86
2023/04/03 06:19:29;;;;;;;;;;;11.20;99.90;;;;;;4961609;28;19929;-86
2023/04/03 06:21:57;;;;;;;;;;;11.40;99.90;;;;;;4961034;29;20364;-85
2023/04/03 06:24:25;;;;;;;;;;;11.50;99.90;;;;;;4975259;28;19938;-85
2023/04/03 06:26:53;;;;;;;;;;;11.70;99.90;;;;;;4962183;28;19957;-85
2023/04/03 06:29:20;;;;;;;;;;;12.10;99.90;;;;;;4959783;28;20006;-84
2023/04/03 06:31:47;;;;;;;;;;;12.50;99.90;;;;;;4962990;29;20085;-84
2023/04/03 06:34:15;;;;;;;;;;;13.10;99.90;;;;;;4969545;28;19961;-85
2023/04/03 06:36:42;;;;;;;;;;;13.60;99.90;;;;;;4979080;28;19926;-85
2023/04/03 06:39:09;;;;;;;;;;;13.80;99.90;;;;;;4969068;28;20200;-84
2023/04/03 06:41:36;;;;;;;;;;;14.50;99.90;;;;;;4977966;28;20222;-84
2023/04/03 06:44:04;;;;;;;;;;;15.00;99.90;;;;;;4970878;28;20365;-85
2023/04/03 06:46:31;;;;;;;;;;;14.80;99.90;;;;;;4968341;29;20028;-86
2023/04/03 06:48:58;;;;;;;;;;;14.90;99.90;;;;;;4967399;29;19938;-85
2023/04/03 06:51:25;;;;;;;;;;;15.30;99.90;;;;;;4969852;28;20518;-85
2023/04/03 06:53:53;;;;;;;;;;;15.40;99.90;;;;;;4971210;28;20408;-85
2023/04/03 06:56:20;;;;;;;;;;;15.30;99.90;;;;;;4968306;28;19948;-85
2023/04/03 06:58:47;;;;;;;;;;;15.10;99.90;;;;;;4984131;28;19922;-85
2023/04/03 07:01:17;;;;;;;;;;;15.20;99.90;;;;;;4983162;28;19932;-86
2023/04/03 07:03:47;;;;;;;;;;;15.10;99.90;;;;;;4989568;28;19923;-85
2023/04/03 07:06:15;;;;;;;;;;;14.80;99.90;;;;;;4959095;28;19926;-84
2023/04/03 07:08:42;;;;;;;;;;;15.10;99.90;;;;;;4963603;28;19930;-85
2023/04/03 07:11:09;;;;;;;;;;;15.10;99.90;;;;;;4961730;28;19930;-85
2023/04/03 07:13:37;;;;;;;;;;;15.40;99.90;;;;;;4961141;29;19937;-85
2023/04/03 07:16:04;;;;;;;;;;;15.70;99.90;;;;;;4961983;29;19953;-85
2023/04/03 07:18:33;;;;;;;;;;;16.20;99.90;;;;;;4962952;28;19949;-85
2023/04/03 07:21:00;;;;;;;;;;;16.30;99.90;;;;;;4952215;28;19923;-85
2023/04/03 07:23:27;;;;;;;;;;;15.90;99.90;;;;;;4945857;29;19927;-85
2023/04/03 07:25:54;;;;;;;;;;;15.80;99.90;;;;;;4943500;29;19926;-84
2023/04/03 07:28:22;;;;;;;;;;;15.90;99.90;;;;;;4955542;28;19922;-85
2023/04/03 07:30:49;;;;;;;;;;;16.30;99.90;;;;;;4953165;29;20664;-85
2023/04/03 07:33:17;;;;;;;;;;;16.70;99.90;;;;;;4979291;28;19922;-85
2023/04/03 07:35:45;;;;;;;;;;;16.50;99.90;;;;;;4970298;28;19926;-85
2023/04/03 07:38:12;;;;;;;;;;;16.30;99.90;;;;;;4953570;29;20476;-83
2023/04/03 07:40:39;;;;;;;;;;;16.60;99.90;;;;;;4959781;29;19929;-83
2023/04/03 07:43:06;;;;;;;;;;;16.60;99.90;;;;;;4958624;28;19965;-83
2023/04/03 07:45:35;;;;;;;;;;;16.40;99.90;;;;;;4953652;29;20297;-84
2023/04/03 07:48:07;;;;;;;;;;;16.30;99.90;;;;;;4964377;28;19911;-84
2023/04/03 07:50:34;;;;;;;;;;;16.00;99.90;;;;;;4959626;29;19927;-84
2023/04/03 07:53:02;;;;;;;;;;;16.10;99.90;;;;;;4971082;28;19920;-84
2023/04/03 07:55:29;;;;;;;;;;;16.50;99.90;;;;;;4968347;29;19937;-84
2023/04/03 07:57:56;;;;;;;;;;;16.40;99.90;;;;;;4961614;29;19926;-84
2023/04/03 08:00:23;;;;;;;;;;;15.90;99.90;;;;;;4959818;29;19946;-84
2023/04/03 08:02:51;;;;;;;;;;;15.70;99.90;;;;;;4969335;28;19926;-84
2023/04/03 08:05:18;;;;;;;;;;;15.40;99.90;;;;;;4967596;28;19926;-84
2023/04/03 08:07:45;;;;;;;;;;;14.90;99.90;;;;;;4975857;28;19933;-85
2023/04/03 08:10:14;;;;;;;;;;;14.80;99.90;;;;;;4973406;28;19929;-83
2023/04/03 08:12:40;;;;;;;;;;;14.80;99.90;;;;;;4967511;28;19926;-86
2023/04/03 08:15:08;;;;;;;;;;;15.10;99.90;;;;;;4977140;28;19921;-85
2023/04/03 08:17:34;;;;;;;;;;;15.00;99.90;;;;;;4977564;28;19917;-84
2023/04/03 08:20:01;;;;;;;;;;;14.80;99.90;;;;;;4963573;28;20025;-84
2023/04/03 08:22:28;;;;;;;;;;;14.20;99.90;;;;;;4956495;28;19959;-84
2023/04/03 08:24:55;;;;;;;;;;;13.60;99.90;;;;;;4956447;29;19952;-83
2023/04/03 08:27:23;;;;;;;;;;;13.20;99.90;;;;;;4979291;28;19922;-84
2023/04/03 08:29:51;;;;;;;;;;;13.20;99.90;;;;;;4959923;28;20307;-83
2023/04/03 08:32:17;;;;;;;;;;;14.00;99.90;;;;;;4959778;28;19932;-84
2023/04/03 08:34:44;;;;;;;;;;;13.50;99.90;;;;;;4957977;28;19927;-84
2023/04/03 08:37:11;;;;;;;;;;;13.10;99.90;;;;;;4955148;29;19926;-83
2023/04/03 08:39:38;;;;;;;;;;;12.70;99.90;;;;;;4951574;29;20153;-83
2023/04/03 08:42:07;;;;;;;;;;;12.40;99.90;;;;;;4956678;29;19926;-84
2023/04/03 08:44:39;;;;;;;;;;;12.50;99.90;;;;;;4964865;28;19918;-83
2023/04/03 08:47:12;;;;;;;;;;;12.70;99.90;;;;;;4954842;29;20053;-84
2023/04/03 08:49:46;;;;;;;;;;;12.40;99.90;;;;;;4955310;29;20581;-83
2023/04/03 08:52:15;;;;;;;;;;;12.10;99.90;;;;;;4960310;28;19958;-85
2023/04/03 08:54:48;;;;;;;;;;;11.80;99.90;;;;;;4974407;29;19930;-85
2023/04/03 08:57:15;;;;;;;;;;;11.60;99.80;;;;;;4958997;28;19969;-85
2023/04/03 08:59:44;;;;;;;;;;;11.30;99.90;;;;;;4976771;28;19937;-84
2023/04/03 09:02:21;;;;;;;;;;;11.50;99.90;;;;;;4976264;29;19919;-84
2023/04/03 09:04:48;;;;;;;;;;;12.00;99.90;;;;;;4980110;28;19953;-84
2023/04/03 09:07:18;;;;;;;;;;;11.90;99.90;;;;;;4975967;28;19966;-83
2023/04/03 09:09:48;;;;;;;;;;;11.80;99.80;;;;;;4975032;28;20004;-83
2023/04/03 09:12:18;;;;;;;;;;;11.50;98.80;;;;;;4973082;28;19915;-84
2023/04/03 09:14:48;;;;;;;;;;;11.30;98.60;;;;;;4963684;28;19930;-83
2023/04/03 09:17:17;;;;;;;;;;;11.00;98.90;;;;;;4958831;28;19933;-84
2023/04/03 09:19:49;;;;;;;;;;;10.80;99.60;;;;;;4953361;29;19926;-82
2023/04/03 09:22:18;;;;;;;;;;;10.60;98.30;;;;;;4951882;29;19927;-83
2023/04/03 09:24:46;;;;;;;;;;;10.40;99.60;;;;;;4970492;28;19990;-87
2023/04/03 09:27:13;;;;;;;;;;;10.50;99.90;;;;;;4949901;29;19949;-82
2023/04/03 09:29:42;;;;;;;;;;;10.50;97.80;;;;;;4954502;29;19923;-84
2023/04/03 09:32:27;;;;;;;;;;;10.40;98.50;;;;;;4961283;28;19936;-83
2023/04/03 09:34:54;;;;;;;;;;;10.40;97.50;;;;;;4964834;28;19949;-82
2023/04/03 09:37:35;;;;;;;;;;;9.90;96.30;;;;;;4946743;29;19933;-83
2023/04/03 09:40:01;;;;;;;;;;;9.40;97.40;;;;;;4937708;29;19957;-83
2023/04/03 09:42:30;;;;;;;;;;;9.10;98.30;;;;;;4949302;29;20645;-82
2023/04/03 09:44:58;;;;;;;;;;;8.90;97.30;;;;;;4954004;29;19932;-82
2023/04/03 09:47:27;;;;;;;;;;;8.60;96.50;;;;;;4944713;29;19933;-82
2023/04/03 09:50:09;;;;;;;;;;;8.30;94.70;;;;;;4953690;29;19930;-83
2023/04/03 09:52:36;;;;;;;;;;;7.90;94.50;;;;;;4952867;28;20616;-82
2023/04/03 09:55:07;;;;;;;;;;;7.70;96.30;;;;;;4957265;29;20003;-83
2023/04/03 09:57:34;;;;;;;;;;;7.60;95.80;;;;;;4954373;28;20635;-82
2023/04/03 10:00:04;;;;;;;;;;;7.40;95.20;;;;;;4955140;29;19930;-83
2023/04/03 10:02:35;;;;;;;;;;;7.50;95.50;;;;;;4953510;29;19933;-83
2023/04/03 10:05:02;;;;;;;;;;;7.60;96.20;;;;;;4967729;28;20056;-83
2023/04/03 10:07:31;;;;;;;;;;;7.70;97.30;;;;;;4955156;28;19933;-83
2023/04/03 10:09:58;;;;;;;;;;;7.80;96.40;;;;;;4954488;29;19926;-83
2023/04/03 10:12:25;;;;;;;;;;;7.90;96.10;;;;;;4953686;29;19928;-83
2023/04/03 10:14:56;;;;;;;;;;;8.00;95.70;;;;;;4956124;29;20575;-83
2023/04/03 10:17:26;;;;;;;;;;;8.00;95.80;;;;;;4955908;28;19933;-83
2023/04/03 10:19:57;;;;;;;;;;;8.00;94.80;;;;;;4958796;28;19930;-83
2023/04/03 10:22:30;;;;;;;;;;;8.00;94.50;;;;;;4953321;28;20447;-84
2023/04/03 10:25:04;;;;;;;;;;;8.00;94.30;;;;;;4959619;29;19954;-83
2023/04/03 10:27:38;;;;;;;;;;;8.00;95.10;;;;;;4977848;28;20198;-84
2023/04/03 10:30:15;;;;;;;;;;;8.10;95.70;;;;;;4970182;29;19957;-83
2023/04/03 10:32:48;;;;;;;;;;;8.10;95.40;;;;;;4965009;28;19922;-83
2023/04/03 10:35:20;;;;;;;;;;;8.10;96.30;;;;;;4958484;28;19926;-84
2023/04/03 10:37:53;;;;;;;;;;;8.30;96.00;;;;;;4938018;28;20679;-84
2023/04/03 10:40:25;;;;;;;;;;;8.40;96.20;;;;;;4954480;28;19926;-84
2023/04/03 10:42:56;;;;;;;;;;;8.40;96.60;;;;;;4947461;29;19926;-85
2023/04/03 10:45:26;;;;;;;;;;;8.50;96.90;;;;;;4952548;28;19926;-84
2023/04/03 10:47:59;;;;;;;;;;;8.50;96.10;;;;;;4959587;28;19965;-84
2023/04/03 10:50:41;;;;;;;;;;;8.60;96.10;;;;;;4957772;28;19927;-84
2023/04/03 10:53:15;;;;;;;;;;;8.70;95.70;;;;;;4964301;28;19922;-84
2023/04/03 10:55:44;;;;;;;;;;;8.80;96.50;;;;;;4969588;28;20336;-85
2023/04/03 10:58:15;;;;;;;;;;;8.90;96.80;;;;;;4962911;28;19937;-85
2023/04/03 11:00:43;;;;;;;;;;;9.10;97.70;;;;;;4976808;28;19965;-85
2023/04/03 11:03:13;;;;;;;;;;;9.30;98.00;;;;;;4937849;29;20023;-85
2023/04/03 11:05:41;;;;;;;;;;;9.50;96.70;;;;;;4955721;28;19929;-84
2023/04/03 11:08:13;;;;;;;;;;;9.50;96.40;;;;;;4951121;29;20070;-85
2023/04/03 11:10:42;;;;;;;;;;;9.50;96.00;;;;;;4965978;28;19930;-83
2023/04/03 11:13:12;;;;;;;;;;;9.40;96.80;;;;;;4955526;29;19941;-83
2023/04/03 11:15:39;;;;;;;;;;;9.50;96.80;;;;;;4954202;29;20361;-84
2023/04/03 11:18:09;;;;;;;;;;;9.60;96.10;;;;;;4953263;28;20014;-86
2023/04/03 11:20:37;;;;;;;;;;;9.60;96.70;;;;;;4952528;29;19922;-84
2023/04/03 11:23:06;;;;;;;;;;;9.70;96.40;;;;;;4955914;29;19958;-84
2023/04/03 11:25:35;;;;;;;;;;;9.80;96.10;;;;;;4953559;29;20341;-83
2023/04/03 11:28:04;;;;;;;;;;;9.80;96.40;;;;;;4960376;28;19922;-85
2023/04/03 11:30:34;;;;;;;;;;;9.90;96.60;;;;;;4967230;28;19930;-84
2023/04/03 11:33:09;;;;;;;;;;;10.00;97.70;;;;;;4966954;28;19930;-84
2023/04/03 11:35:37;;;;;;;;;;;10.20;96.00;;;;;;4944197;29;20037;-83
2023/04/03 11:38:06;;;;;;;;;;;10.20;95.80;;;;;;4950077;29;20041;-86
2023/04/03 11:40:33;;;;;;;;;;;10.20;96.60;;;;;;4966295;29;19954;-86
2023/04/03 11:43:08;;;;;;;;;;;10.40;97.70;;;;;;4964950;29;19926;-83
2023/04/03 11:45:37;;;;;;;;;;;10.50;97.30;;;;;;4970948;29;19911;-84
2023/04/03 11:48:06;;;;;;;;;;;10.60;96.50;;;;;;4966701;28;19950;-85
2023/04/03 11:50:47;;;;;;;;;;;10.80;96.60;;;;;;4968376;29;19927;-83
2023/04/03 11:53:31;;;;;;;;;;;10.80;96.00;;;;;;4954942;29;19926;-84
2023/04/03 11:55:59;;;;;;;;;;;10.70;95.70;;;;;;4956116;29;20440;-82
2023/04/03 11:58:28;;;;;;;;;;;10.60;94.70;;;;;;4942853;29;20006;-85
2023/04/03 12:00:57;;;;;;;;;;;10.40;95.20;;;;;;4968140;28;20316;-83
2023/04/03 12:03:47;;;;;;;;;;;10.50;96.10;;;;;;4962561;29;19937;-84
2023/04/03 12:06:32;;;;;;;;;;;10.60;95.70;;;;;;4964730;28;19933;-85
2023/04/03 12:08:59;;;;;;;;;;;10.60;94.70;;;;;;4958409;29;20729;-84
2023/04/03 12:11:29;;;;;;;;;;;10.60;95.70;;;;;;4960312;28;20158;-85
2023/04/03 12:14:04;;;;;;;;;;;10.70;95.10;;;;;;4968613;28;19977;-85
2023/04/03 12:16:33;;;;;;;;;;;10.80;95.00;;;;;;4961400;28;19927;-84
2023/04/03 12:19:03;;;;;;;;;;;10.80;94.40;;;;;;4952753;28;19949;-84
2023/04/03 12:21:48;;;;;;;;;;;10.80;94.30;;;;;;4960031;29;20025;-85
2023/04/03 12:24:33;;;;;;;;;;;10.70;93.70;;;;;;4954273;28;19926;-84
2023/04/03 12:27:05;;;;;;;;;;;10.80;93.50;;;;;;4963492;28;19994;-85
2023/04/03 12:29:40;;;;;;;;;;;10.90;93.50;;;;;;4955404;28;19926;-84
2023/04/03 12:32:13;;;;;;;;;;;11.00;94.30;;;;;;4954425;28;19937;-85
2023/04/03 12:34:47;;;;;;;;;;;11.10;94.30;;;;;;4958089;29;19923;-84
2023/04/03 12:37:22;;;;;;;;;;;11.20;93.40;;;;;;4956882;28;19919;-85
2023/04/03 12:39:53;;;;;;;;;;;11.20;93.70;;;;;;4957857;28;19922;-85
2023/04/03 12:42:39;;;;;;;;;;;11.40;93.20;;;;;;4959349;29;19930;-85
2023/04/03 12:45:11;;;;;;;;;;;11.20;91.80;;;;;;4951590;28;19950;-84
2023/04/03 12:47:39;;;;;;;;;;;11.10;91.80;;;;;;4972998;28;19923;-84
2023/04/03 12:50:18;;;;;;;;;;;11.00;91.60;;;;;;4960253;28;19926;-84
2023/04/03 12:52:46;;;;;;;;;;;10.90;91.00;;;;;;4966300;28;19949;-84
2023/04/03 12:55:17;;;;;;;;;;;10.90;91.80;;;;;;4953310;29;19934;-82
2023/04/03 12:57:43;;;;;;;;;;;10.90;91.80;;;;;;4943163;28;19927;-83
2023/04/03 13:00:30;;;;;;;;;;;11.00;92.40;;;;;;4967330;28;19933;-83
2023/04/03 13:02:57;;;;;;;;;;;10.90;92.40;;;;;;4957729;29;20017;-82
2023/04/03 13:05:24;;;;;;;;;;;11.00;93.30;;;;;;4968248;28;20393;-85
2023/04/03 13:07:53;;;;;;;;;;;11.20;93.50;;;;;;4972254;28;19926;-82
2023/04/03 13:10:20;;;;;;;;;;;11.30;93.60;;;;;;4975141;28;19945;-84
2023/04/03 13:12:49;;;;;;;;;;;11.50;92.50;;;;;;4956073;28;19934;-83
2023/04/03 13:15:17;;;;;;;;;;;11.40;91.80;;;;;;4946170;28;19929;-84
2023/04/03 13:17:48;;;;;;;;;;;11.40;91.40;;;;;;4970773;28;19926;-83
2023/04/03 13:20:18;;;;;;;;;;;11.30;91.50;;;;;;4953864;28;19926;-84
2023/04/03 13:22:49;;;;;;;;;;;11.30;91.10;;;;;;4960762;28;19945;-83
2023/04/03 13:25:16;;;;;;;;;;;11.20;90.90;;;;;;4979230;28;19926;-83
2023/04/03 13:27:43;;;;;;;;;;;11.00;91.50;;;;;;4960124;28;19926;-83
2023/04/03 13:30:20;;;;;;;;;;;11.10;91.30;;;;;;4960340;29;19922;-83
2023/04/03 13:32:49;;;;;;;;;;;11.20;92.10;;;;;;4960171;28;19932;-84
2023/04/03 13:35:30;;;;;;;;;;;11.10;90.90;;;;;;4959024;29;19933;-83
2023/04/03 13:37:57;;;;;;;;;;;11.00;91.20;;;;;;4966349;28;19954;-85
2023/04/03 13:40:24;;;;;;;;;;;11.10;91.20;;;;;;4958842;28;19922;-84
2023/04/03 13:42:59;;;;;;;;;;;11.10;90.90;;;;;;4971863;28;19922;-83
2023/04/03 13:45:28;;;;;;;;;;;11.20;91.70;;;;;;4958130;28;20644;-84
2023/04/03 13:48:09;;;;;;;;;;;11.20;90.90;;;;;;4963739;28;20492;-87
2023/04/03 13:50:50;;;;;;;;;;;11.10;90.90;;;;;;4958392;29;19935;-83
2023/04/03 13:53:17;;;;;;;;;;;11.10;90.80;;;;;;4959483;28;19926;-82
2023/04/03 13:55:55;;;;;;;;;;;11.00;91.50;;;;;;4969589;28;19926;-82
2023/04/03 13:58:23;;;;;;;;;;;11.20;91.60;;;;;;4962723;28;19930;-84
2023/04/03 14:00:51;;;;;;;;;;;11.20;90.40;;;;;;4957567;29;19949;-84
2023/04/03 14:03:22;;;;;;;;;;;11.30;91.10;;;;;;4954106;28;19933;-83
2023/04/03 14:05:48;;;;;;;;;;;11.20;91.20;;;;;;4964288;29;20277;-82
2023/04/03 14:08:16;;;;;;;;;;;11.20;91.40;;;;;;4980692;28;19926;-83
2023/04/03 14:10:42;;;;;;;;;;;11.30;91.70;;;;;;4955571;28;19930;-84
2023/04/03 14:13:10;;;;;;;;;;;11.40;91.80;;;;;;4955161;28;19930;-83
2023/04/03 14:15:42;;;;;;;;;;;11.50;92.00;;;;;;4956642;29;19929;-85
2023/04/03 14:18:20;;;;;;;;;;;11.60;91.60;;;;;;4972068;28;20025;-85
2023/04/03 14:20:49;;;;;;;;;;;11.50;90.30;;;;;;4971702;28;19923;-82
2023/04/03 14:23:16;;;;;;;;;;;11.40;91.10;;;;;;4957515;28;19926;-83
2023/04/03 14:25:43;;;;;;;;;;;11.30;90.50;;;;;;4958023;28;19977;-84
2023/04/03 14:28:15;;;;;;;;;;;11.10;90.60;;;;;;4956530;28;19937;-83
2023/04/03 14:30:42;;;;;;;;;;;11.00;91.20;;;;;;4956788;29;19930;-83
2023/04/03 14:33:11;;;;;;;;;;;11.00;91.80;;;;;;4951677;29;19989;-84
2023/04/03 14:35:40;;;;;;;;;;;11.20;91.60;;;;;;4959072;29;19926;-83
2023/04/03 14:38:13;;;;;;;;;;;11.10;90.70;;;;;;4953228;29;20018;-83
2023/04/03 14:40:40;;;;;;;;;;;11.00;90.10;;;;;;4952440;29;19927;-84
2023/04/03 14:43:10;;;;;;;;;;;10.90;91.20;;;;;;4957660;28;19929;-83
2023/04/03 14:45:37;;;;;;;;;;;10.90;90.50;;;;;;4952674;29;20353;-85